Terminal Aerodrome Forecast
Issued by NWS

Home | Current Version | Previous Version | Text Only | Print | Product List | Glossary Off
Versions: 1 2 3 4 5 6 7 8 9 10 11 12 13 14 15 16 17 18 19

000
FTUS43 KGRB 030948 AAA
TAFATW
TAF AMD
KATW 030948Z 0310/0406 18004KT P6SM SCT009 BKN060
      TEMPO 0310/0313 4SM BR
     FM031500 12005KT P6SM VCSH BKN020
     FM031800 15006KT P6SM VCSH SCT020 BKN040
     FM032200 09004KT P6SM SCT040 SCT100=

USA.gov is the U.S. government's official web portal to all federal, state and local government web resources and services.